Time;durP1;ratioP1;P1;durP2;ratioP2;P2;SDS_P1;SDS_P2;PMS_P1;PMS_P2;Temp;Humidity;BMP_temperature;BMP_pressure;BME280_temperature;BME280_humidity;BME280_pressure;Samples;Min_cycle;Max_cycle;Signal;HPM_P1;HPM_P2
2023/08/24 00:00:51;;;;;;;6.38;3.30;;;17.40;99.90;;;;;;4232583;28;20488;-80
2023/08/24 00:02:51;;;;;;;6.38;3.33;;;16.50;99.90;;;;;;4232640;28;20044;-80
2023/08/24 00:04:52;;;;;;;12.38;3.20;;;17.40;99.90;;;;;;4232881;28;20075;-80
2023/08/24 00:06:53;;;;;;;10.57;3.45;;;17.40;99.90;;;;;;4232667;28;20054;-80
2023/08/24 00:08:54;;;;;;;5.80;3.75;;;17.40;99.90;;;;;;4197392;28;20169;-80
2023/08/24 00:10:55;;;;;;;8.18;3.67;;;17.50;99.90;;;;;;4232064;28;20056;-80
2023/08/24 00:12:56;;;;;;;5.22;3.53;;;17.40;99.90;;;;;;4214080;28;20471;-80
2023/08/24 00:14:57;;;;;;;5.38;3.30;;;17.40;99.90;;;;;;4214202;28;20048;-81
2023/08/24 00:16:57;;;;;;;7.38;3.33;;;17.10;99.90;;;;;;4231983;28;20044;-80
2023/08/24 00:18:58;;;;;;;9.15;3.38;;;17.30;99.90;;;;;;4232084;28;20533;-80
2023/08/24 00:20:59;;;;;;;7.30;3.42;;;17.20;99.90;;;;;;4232247;28;20032;-80
2023/08/24 00:23:00;;;;;;;6.50;3.58;;;17.20;99.90;;;;;;4231862;28;20040;-80
2023/08/24 00:25:01;;;;;;;5.43;2.90;;;17.20;99.90;;;;;;4231799;28;20092;-80
2023/08/24 00:27:01;;;;;;;6.90;3.20;;;17.20;99.90;;;;;;4213716;28;20047;-80
2023/08/24 00:29:02;;;;;;;6.15;3.08;;;17.20;99.90;;;;;;4213960;28;20522;-80
2023/08/24 00:31:03;;;;;;;6.45;3.30;;;17.20;99.90;;;;;;4231668;28;20130;-80
2023/08/24 00:33:04;;;;;;;5.65;2.80;;;17.10;99.90;;;;;;4232029;28;20039;-80
2023/08/24 00:35:06;;;;;;;6.25;3.20;;;17.10;99.90;;;;;;4214082;28;20044;-80
2023/08/24 00:37:07;;;;;;;7.47;2.97;;;17.10;99.90;;;;;;4231661;28;20039;-80
2023/08/24 00:39:08;;;;;;;6.63;3.13;;;17.10;99.90;;;;;;4231644;28;20634;-80
2023/08/24 00:41:08;;;;;;;8.27;3.35;;;17.00;99.90;;;;;;4231874;28;20110;-80
2023/08/24 00:43:10;;;;;;;4.32;2.85;;;17.00;99.90;;;;;;4231448;28;20051;-80
2023/08/24 00:45:12;;;;;;;5.88;2.80;;;17.00;99.90;;;;;;4231385;28;20036;-80
2023/08/24 00:47:12;;;;;;;6.15;3.50;;;17.00;99.90;;;;;;4231834;28;20071;-80
2023/08/24 00:49:14;;;;;;;10.30;3.05;;;17.00;99.90;;;;;;4231890;28;20048;-80
2023/08/24 00:51:15;;;;;;;8.60;3.55;;;17.10;99.90;;;;;;4231074;28;20054;-80
2023/08/24 00:53:17;;;;;;;5.60;3.00;;;16.30;99.90;;;;;;4212890;28;20618;-80
2023/08/24 00:55:18;;;;;;;7.47;3.60;;;17.40;99.90;;;;;;4230191;28;20122;-80
2023/08/24 00:57:19;;;;;;;9.63;3.22;;;17.10;99.90;;;;;;4231757;28;20118;-80
2023/08/24 00:59:20;;;;;;;7.47;3.55;;;17.10;99.90;;;;;;4231366;28;20036;-80
2023/08/24 01:01:21;;;;;;;6.50;3.22;;;17.10;99.90;;;;;;4231895;28;20496;-80
2023/08/24 01:03:23;;;;;;;9.90;2.95;;;17.10;99.90;;;;;;4231563;28;20040;-80
2023/08/24 01:05:24;;;;;;;6.90;3.05;;;17.10;99.90;;;;;;4213457;28;20052;-80
2023/08/24 01:07:26;;;;;;;4.95;2.92;;;17.10;99.90;;;;;;4231252;28;20086;-80
2023/08/24 01:09:26;;;;;;;4.03;2.85;;;17.10;99.90;;;;;;4231225;28;20048;-80
2023/08/24 01:11:39;;;;;;;6.25;2.58;;;17.00;99.90;;;;;;4231088;28;20053;-80
2023/08/24 01:14:04;;;;;;;3.72;2.20;;;17.10;99.90;;;;;;4231100;28;20040;-81
2023/08/24 01:16:11;;;;;;;2.80;2.05;;;17.00;99.90;;;;;;4231168;28;20398;-80
2023/08/24 01:18:16;;;;;;;3.63;2.05;;;17.00;99.90;;;;;;4231357;28;20115;-80
2023/08/24 01:20:18;;;;;;;5.78;2.17;;;17.00;99.90;;;;;;4230924;28;20043;-80
2023/08/24 01:22:31;;;;;;;6.35;3.08;;;17.00;99.90;;;;;;4230908;28;20429;-80
2023/08/24 01:24:39;;;;;;;6.78;2.17;;;16.90;99.90;;;;;;4231124;28;20055;-80
2023/08/24 01:26:42;;;;;;;4.47;2.35;;;16.90;99.90;;;;;;4231361;28;20045;-80
2023/08/24 01:28:44;;;;;;;4.15;2.50;;;16.90;99.90;;;;;;4213040;28;20128;-80
2023/08/24 01:30:45;;;;;;;6.15;3.03;;;16.80;99.90;;;;;;4230995;28;20048;-80
2023/08/24 01:32:46;;;;;;;5.53;2.30;;;16.80;99.90;;;;;;4231181;28;20525;-80
2023/08/24 01:34:47;;;;;;;3.20;2.15;;;16.80;99.90;;;;;;4230703;28;20114;-80
2023/08/24 01:36:48;;;;;;;2.85;1.90;;;16.80;99.90;;;;;;4231744;27;20034;-80
2023/08/24 01:38:58;;;;;;;6.45;2.17;;;16.80;99.90;;;;;;4230925;28;20122;-80
2023/08/24 01:41:24;;;;;;;3.95;1.77;;;16.80;99.90;;;;;;4231029;28;20427;-81
2023/08/24 01:43:30;;;;;;;7.15;3.42;;;16.80;99.90;;;;;;4231116;28;20047;-80
2023/08/24 01:45:32;;;;;;;5.40;2.20;;;16.80;99.90;;;;;;4230788;28;20126;-80
2023/08/24 01:47:35;;;;;;;6.32;3.00;;;16.80;99.90;;;;;;4230872;28;20040;-80
2023/08/24 01:49:36;;;;;;;3.65;2.15;;;16.80;99.90;;;;;;4214842;28;20082;-80
2023/08/24 01:51:37;;;;;;;6.00;2.90;;;16.80;99.90;;;;;;4247951;28;20371;-80
2023/08/24 01:53:39;;;;;;;5.43;3.17;;;16.80;99.90;;;;;;4247932;28;20039;-80
2023/08/24 01:55:40;;;;;;;5.22;2.70;;;16.80;99.90;;;;;;4248048;28;20053;-80
2023/08/24 01:57:41;;;;;;;3.83;2.10;;;17.80;99.90;;;;;;4247812;28;20123;-80
2023/08/24 01:59:42;;;;;;;3.65;2.08;;;16.70;99.90;;;;;;4247783;28;20043;-80
2023/08/24 02:01:43;;;;;;;3.35;2.00;;;16.70;99.90;;;;;;4247335;28;20035;-80
2023/08/24 02:03:43;;;;;;;4.88;2.53;;;16.70;99.90;;;;;;4230482;28;20063;-80
2023/08/24 02:05:44;;;;;;;4.20;1.90;;;16.60;99.90;;;;;;4251368;27;20126;-80
2023/08/24 02:07:45;;;;;;;6.20;2.53;;;16.60;99.90;;;;;;4224478;28;20109;-80
2023/08/24 02:09:46;;;;;;;6.10;2.50;;;16.50;99.90;;;;;;4234367;28;20091;-80
2023/08/24 02:11:47;;;;;;;9.02;2.33;;;16.60;99.90;;;;;;4234106;28;20502;-80
2023/08/24 02:13:47;;;;;;;6.63;2.25;;;16.60;99.90;;;;;;4234304;28;20044;-80
2023/08/24 02:15:48;;;;;;;4.57;2.33;;;16.50;99.90;;;;;;4234204;28;20046;-80
2023/08/24 02:17:50;;;;;;;3.78;2.50;;;16.50;99.90;;;;;;4234030;28;20093;-80
2023/08/24 02:19:51;;;;;;;6.05;2.30;;;16.50;99.90;;;;;;4220174;28;20115;-80
2023/08/24 02:21:52;;;;;;;7.68;2.42;;;16.50;99.90;;;;;;4250782;27;20479;-80
2023/08/24 02:23:52;;;;;;;6.68;2.10;;;16.50;99.90;;;;;;4251162;27;20035;-80
2023/08/24 02:25:53;;;;;;;7.93;2.25;;;16.50;99.90;;;;;;4238226;27;20071;-80
2023/08/24 02:27:54;;;;;;;3.25;2.08;;;16.50;99.90;;;;;;4233778;28;20043;-80
2023/08/24 02:29:55;;;;;;;3.17;2.17;;;16.50;99.90;;;;;;4233937;28;20044;-80
2023/08/24 02:31:55;;;;;;;6.03;2.17;;;16.50;99.90;;;;;;4234093;28;20048;-80
2023/08/24 02:33:56;;;;;;;4.75;2.13;;;16.50;99.90;;;;;;4215509;28;20059;-80
2023/08/24 02:35:57;;;;;;;4.65;2.45;;;16.60;99.90;;;;;;4233516;28;20784;-80
2023/08/24 02:37:58;;;;;;;7.70;2.10;;;16.60;99.90;;;;;;4233842;28;20122;-80
2023/08/24 02:39:59;;;;;;;7.03;2.47;;;16.60;99.90;;;;;;4233872;28;20438;-80
2023/08/24 02:41:59;;;;;;;4.93;2.15;;;16.60;99.90;;;;;;4233551;28;20035;-80
2023/08/24 02:44:01;;;;;;;4.38;1.63;;;16.60;99.90;;;;;;4233743;28;20501;-80
2023/08/24 02:46:03;;;;;;;3.97;2.33;;;16.60;99.90;;;;;;4233436;28;20047;-80
2023/08/24 02:48:04;;;;;;;6.32;2.30;;;16.60;99.90;;;;;;4233501;28;20043;-80
2023/08/24 02:50:06;;;;;;;9.02;3.45;;;16.60;99.90;;;;;;4233634;28;20389;-79
2023/08/24 02:52:07;;;;;;;6.68;2.00;;;16.70;99.90;;;;;;4233811;28;20548;-80
2023/08/24 02:54:07;;;;;;;6.63;2.13;;;16.70;99.90;;;;;;4233483;28;20114;-80
2023/08/24 02:56:08;;;;;;;3.40;2.20;;;17.90;99.90;;;;;;4233294;28;20043;-79
2023/08/24 02:58:09;;;;;;;5.63;2.80;;;16.70;99.90;;;;;;4215058;28;20058;-80
2023/08/24 03:00:13;;;;;;;6.82;2.85;;;16.70;99.90;;;;;;4215061;28;20107;-80
2023/08/24 03:02:14;;;;;;;6.05;2.50;;;16.70;99.90;;;;;;4233641;28;20052;-80
2023/08/24 03:04:15;;;;;;;5.88;2.78;;;16.70;99.90;;;;;;4233387;28;20178;-80
2023/08/24 03:06:15;;;;;;;7.45;2.60;;;16.70;99.90;;;;;;4233400;28;20478;-80
2023/08/24 03:08:16;;;;;;;6.63;2.70;;;16.70;99.90;;;;;;4232993;28;20051;-79
2023/08/24 03:10:17;;;;;;;8.40;3.10;;;16.80;99.90;;;;;;4233480;28;20105;-80
2023/08/24 03:12:17;;;;;;;8.20;3.58;;;16.80;99.90;;;;;;4233490;28;20411;-80
2023/08/24 03:14:18;;;;;;;10.40;3.22;;;16.80;99.90;;;;;;4214768;28;20043;-80
2023/08/24 03:16:20;;;;;;;8.43;3.00;;;16.80;99.90;;;;;;4233127;28;20051;-80
2023/08/24 03:18:21;;;;;;;10.07;3.83;;;16.70;99.90;;;;;;4248733;27;20039;-80
2023/08/24 03:20:22;;;;;;;5.25;3.50;;;16.70;99.90;;;;;;4231488;28;20555;-79
2023/08/24 03:22:23;;;;;;;8.02;3.40;;;16.70;99.90;;;;;;4250187;27;20130;-79
2023/08/24 03:24:24;;;;;;;7.45;3.53;;;16.70;99.90;;;;;;4232138;28;20048;-80
2023/08/24 03:26:24;;;;;;;8.77;3.20;;;16.70;99.90;;;;;;4231887;28;20144;-80
2023/08/24 03:28:25;;;;;;;7.53;3.10;;;16.60;99.90;;;;;;4249882;27;20042;-79
2023/08/24 03:30:26;;;;;;;7.47;2.90;;;16.60;99.90;;;;;;4250100;27;20050;-80
2023/08/24 03:32:27;;;;;;;9.38;3.05;;;16.60;99.90;;;;;;4249820;27;20043;-80
2023/08/24 03:34:29;;;;;;;6.50;3.30;;;16.60;99.90;;;;;;4249986;27;20042;-80
2023/08/24 03:36:30;;;;;;;6.45;2.72;;;16.50;99.90;;;;;;4231803;28;20047;-80
2023/08/24 03:38:31;;;;;;;6.07;2.60;;;16.60;99.90;;;;;;4231669;28;20047;-80
2023/08/24 03:40:31;;;;;;;4.57;2.75;;;16.50;99.90;;;;;;4231479;28;20089;-80
2023/08/24 03:42:32;;;;;;;7.30;2.75;;;16.60;99.90;;;;;;4249727;27;20038;-80
2023/08/24 03:44:34;;;;;;;8.40;3.50;;;16.50;99.90;;;;;;4231033;28;20056;-80
2023/08/24 03:46:34;;;;;;;7.78;3.30;;;16.60;99.90;;;;;;4249912;27;20049;-80
2023/08/24 03:48:35;;;;;;;9.13;3.67;;;16.60;99.90;;;;;;4249906;27;20082;-80
2023/08/24 03:50:36;;;;;;;6.97;4.32;;;16.60;99.90;;;;;;4249805;27;20046;-80
2023/08/24 03:52:39;;;;;;;8.35;4.10;;;16.60;99.90;;;;;;4249532;27;20054;-80
2023/08/24 03:54:39;;;;;;;7.18;4.30;;;16.60;99.90;;;;;;4249692;27;20035;-80
2023/08/24 03:56:40;;;;;;;6.95;4.05;;;16.60;99.90;;;;;;4231111;28;20043;-80
2023/08/24 03:58:41;;;;;;;9.60;4.97;;;16.60;99.90;;;;;;4214052;28;20048;-80
2023/08/24 04:00:42;;;;;;;9.90;4.90;;;16.60;99.90;;;;;;4249717;27;20475;-80
2023/08/24 04:02:44;;;;;;;7.38;3.85;;;16.60;99.90;;;;;;4249851;27;20043;-80
2023/08/24 04:04:46;;;;;;;8.60;4.30;;;16.60;99.90;;;;;;4230701;28;20054;-80
2023/08/24 04:06:46;;;;;;;11.55;3.67;;;16.60;99.90;;;;;;4231109;28;20047;-80
2023/08/24 04:08:47;;;;;;;7.20;3.97;;;16.60;99.90;;;;;;4249220;27;20420;-80
2023/08/24 04:10:48;;;;;;;11.65;4.95;;;16.60;99.90;;;;;;4231196;28;20098;-80
2023/08/24 04:12:49;;;;;;;9.60;3.75;;;16.60;99.90;;;;;;4249561;27;20062;-80
2023/08/24 04:14:49;;;;;;;14.38;5.05;;;16.50;99.90;;;;;;4213998;28;20048;-80
2023/08/24 04:16:50;;;;;;;9.23;4.07;;;16.60;99.90;;;;;;4248811;27;20463;-80
2023/08/24 04:18:51;;;;;;;8.13;4.32;;;16.50;99.90;;;;;;4249339;27;20107;-80
2023/08/24 04:20:55;;;;;;;6.82;3.70;;;16.50;99.90;;;;;;4248973;27;20035;-80
2023/08/24 04:22:56;;;;;;;7.90;4.13;;;16.50;99.90;;;;;;4249256;27;20127;-80
2023/08/24 04:24:57;;;;;;;4.97;3.70;;;16.50;99.90;;;;;;4246291;27;20039;-80
2023/08/24 04:26:58;;;;;;;9.57;4.05;;;16.50;99.90;;;;;;4230722;28;20036;-80
2023/08/24 04:28:58;;;;;;;6.18;3.38;;;16.50;99.90;;;;;;4231495;28;20469;-80
2023/08/24 04:31:00;;;;;;;6.28;3.65;;;16.50;99.90;;;;;;4231836;28;20399;-80
2023/08/24 04:33:03;;;;;;;7.40;3.35;;;16.50;99.90;;;;;;4231944;28;20044;-80
2023/08/24 04:35:04;;;;;;;7.20;3.58;;;16.50;99.90;;;;;;4232301;28;20048;-80
2023/08/24 04:37:06;;;;;;;6.63;3.28;;;16.50;99.90;;;;;;4231267;28;20047;-80
2023/08/24 04:39:07;;;;;;;6.30;3.10;;;16.50;99.90;;;;;;4232004;28;20040;-80
2023/08/24 04:41:09;;;;;;;7.65;3.63;;;16.50;99.90;;;;;;4231868;28;20039;-81
2023/08/24 04:43:09;;;;;;;8.82;3.53;;;16.50;99.90;;;;;;4231897;28;20039;-81
2023/08/24 04:45:10;;;;;;;7.35;3.17;;;16.40;99.90;;;;;;4231794;28;20137;-81
2023/08/24 04:47:11;;;;;;;6.20;2.88;;;16.40;99.90;;;;;;4231708;28;20168;-80
2023/08/24 04:49:12;;;;;;;8.68;3.05;;;16.40;99.90;;;;;;4231761;28;20036;-80
2023/08/24 04:51:13;;;;;;;5.20;2.75;;;16.30;99.90;;;;;;4231286;28;20042;-80
2023/08/24 04:53:17;;;;;;;7.88;3.22;;;16.30;99.90;;;;;;4235369;27;20043;-80
2023/08/24 04:55:18;;;;;;;6.15;2.85;;;16.30;99.90;;;;;;4239029;27;20044;-80
2023/08/24 04:57:19;;;;;;;8.27;2.83;;;16.30;99.90;;;;;;4196483;28;20047;-80
2023/08/24 04:59:20;;;;;;;7.25;2.92;;;16.20;99.90;;;;;;4231049;28;20040;-80
2023/08/24 05:01:20;;;;;;;8.23;3.10;;;16.20;99.90;;;;;;4231236;28;20044;-80
2023/08/24 05:03:21;;;;;;;6.35;3.10;;;16.20;99.90;;;;;;4231299;28;20130;-80
2023/08/24 05:05:22;;;;;;;7.20;2.90;;;16.20;99.90;;;;;;4231600;28;20044;-80
2023/08/24 05:07:23;;;;;;;6.10;3.40;;;16.30;99.90;;;;;;4231530;28;20031;-80
2023/08/24 05:09:23;;;;;;;7.00;3.17;;;16.20;99.90;;;;;;4231203;28;20052;-80
2023/08/24 05:11:29;;;;;;;5.70;3.03;;;16.10;99.90;;;;;;4213249;28;20048;-80
2023/08/24 05:13:29;;;;;;;7.78;3.75;;;16.20;99.90;;;;;;4231206;28;20460;-81
2023/08/24 05:15:30;;;;;;;6.15;3.22;;;16.20;99.90;;;;;;4229737;28;20039;-80
2023/08/24 05:17:34;;;;;;;5.03;2.78;;;16.20;99.90;;;;;;4231339;28;20394;-80
2023/08/24 05:19:34;;;;;;;4.32;2.80;;;16.20;99.90;;;;;;4246617;27;20407;-80
2023/08/24 05:21:35;;;;;;;5.82;2.60;;;16.30;99.90;;;;;;4212948;28;20055;-80
2023/08/24 05:23:36;;;;;;;7.25;3.15;;;16.30;99.90;;;;;;4248294;27;20463;-80
2023/08/24 05:25:37;;;;;;;5.75;2.60;;;16.30;99.90;;;;;;4247991;27;20039;-80
2023/08/24 05:27:39;;;;;;;4.03;2.50;;;16.30;99.90;;;;;;4212811;28;20537;-80
2023/08/24 05:29:40;;;;;;;5.70;2.40;;;16.30;99.90;;;;;;4248245;27;20507;-79
2023/08/24 05:31:41;;;;;;;6.80;2.38;;;16.30;99.90;;;;;;4248347;27;20043;-80
2023/08/24 05:33:41;;;;;;;4.10;2.65;;;16.30;99.90;;;;;;4247939;27;20050;-80
2023/08/24 05:35:42;;;;;;;9.60;3.63;;;16.30;99.90;;;;;;4229798;28;20090;-80
2023/08/24 05:37:43;;;;;;;9.95;4.80;;;16.30;99.90;;;;;;4247649;27;20403;-80
2023/08/24 05:39:44;;;;;;;7.47;3.60;;;16.40;99.90;;;;;;4240132;27;20392;-81
2023/08/24 05:41:44;;;;;;;7.43;3.75;;;16.40;99.90;;;;;;4247125;27;20050;-81
2023/08/24 05:43:45;;;;;;;10.32;4.90;;;16.40;99.90;;;;;;4247770;27;20494;-81
2023/08/24 05:45:46;;;;;;;10.63;5.03;;;16.50;99.90;;;;;;4245392;27;20043;-79
2023/08/24 05:47:47;;;;;;;10.98;4.38;;;16.50;99.90;;;;;;4229423;28;20601;-80
2023/08/24 05:49:48;;;;;;;14.63;4.30;;;16.50;99.90;;;;;;4229472;28;20104;-81
2023/08/24 05:51:52;;;;;;;13.43;4.75;;;16.60;99.90;;;;;;4242754;27;20044;-80
2023/08/24 05:53:55;;;;;;;12.98;4.65;;;16.60;99.90;;;;;;4212494;28;20401;-80
2023/08/24 05:55:59;;;;;;;7.32;4.20;;;16.60;99.90;;;;;;4230936;28;20110;-80
2023/08/24 05:58:00;;;;;;;6.13;4.30;;;16.60;99.90;;;;;;4241159;27;20436;-80
2023/08/24 06:00:00;;;;;;;8.70;4.45;;;16.60;99.90;;;;;;4224817;28;20077;-80
2023/08/24 06:02:01;;;;;;;11.02;4.85;;;16.60;99.90;;;;;;4242672;28;20050;-80
2023/08/24 06:04:02;;;;;;;9.40;4.75;;;16.60;99.90;;;;;;4233783;28;20063;-80
2023/08/24 06:06:04;;;;;;;9.63;4.35;;;16.60;99.90;;;;;;4234208;28;20044;-80
2023/08/24 06:08:05;;;;;;;9.07;4.60;;;16.70;99.90;;;;;;4234513;28;20387;-80
2023/08/24 06:10:06;;;;;;;10.98;4.10;;;16.80;99.90;;;;;;4245949;27;20065;-80
2023/08/24 06:12:07;;;;;;;7.07;3.50;;;16.80;99.90;;;;;;4215923;28;20137;-80
2023/08/24 06:14:08;;;;;;;7.00;4.00;;;16.90;99.90;;;;;;4216472;28;20915;-79
2023/08/24 06:16:09;;;;;;;8.70;3.70;;;16.90;99.90;;;;;;4244585;28;20106;-79
2023/08/24 06:18:10;;;;;;;7.50;3.80;;;17.00;99.90;;;;;;4233906;28;20043;-79
2023/08/24 06:20:12;;;;;;;11.77;4.35;;;17.10;99.90;;;;;;4215479;28;20095;-79
2023/08/24 06:22:13;;;;;;;9.25;4.25;;;17.10;99.90;;;;;;4245426;28;20476;-79
2023/08/24 06:24:14;;;;;;;15.57;3.67;;;17.20;99.90;;;;;;4216081;28;20051;-80
2023/08/24 06:26:15;;;;;;;5.95;3.40;;;17.20;99.90;;;;;;4233030;28;20047;-81
2023/08/24 06:28:15;;;;;;;7.53;3.58;;;17.40;99.90;;;;;;4245415;28;20105;-80
2023/08/24 06:30:16;;;;;;;10.90;3.63;;;17.30;99.90;;;;;;4233989;28;20047;-80
2023/08/24 06:32:17;;;;;;;7.00;2.95;;;17.30;99.90;;;;;;4245740;28;20036;-80
2023/08/24 06:34:18;;;;;;;8.27;2.70;;;17.40;99.90;;;;;;4238780;28;20039;-80
2023/08/24 06:36:18;;;;;;;10.85;3.17;;;17.40;99.90;;;;;;4215557;28;20086;-80
2023/08/24 06:38:19;;;;;;;15.40;3.40;;;17.50;99.90;;;;;;4245673;28;20053;-79
2023/08/24 06:40:20;;;;;;;12.48;4.10;;;17.60;99.90;;;;;;4214438;28;20055;-80
2023/08/24 06:42:21;;;;;;;8.68;3.85;;;17.70;99.90;;;;;;4230208;28;20134;-80
2023/08/24 06:44:22;;;;;;;9.98;4.50;;;17.70;99.90;;;;;;4215008;28;20055;-80
2023/08/24 06:46:23;;;;;;;7.70;2.83;;;17.80;99.90;;;;;;4230613;28;20104;-79
2023/08/24 06:48:23;;;;;;;12.85;4.90;;;18.00;99.90;;;;;;4233257;28;20408;-80
2023/08/24 06:50:24;;;;;;;8.80;3.60;;;18.10;99.90;;;;;;4243594;27;20042;-80
2023/08/24 06:52:25;;;;;;;10.45;3.72;;;18.20;99.90;;;;;;4243984;27;20084;-80
2023/08/24 06:54:25;;;;;;;6.80;3.35;;;18.30;99.90;;;;;;4237559;27;20036;-80
2023/08/24 06:56:26;;;;;;;6.68;3.50;;;18.40;99.90;;;;;;4245041;27;20047;-80
2023/08/24 06:58:27;;;;;;;7.03;3.17;;;18.50;99.90;;;;;;4218599;28;20554;-80
2023/08/24 07:00:28;;;;;;;6.68;2.95;;;18.60;99.90;;;;;;4236759;27;20510;-80
2023/08/24 07:02:29;;;;;;;13.45;3.50;;;18.70;99.90;;;;;;4244087;27;20519;-80
2023/08/24 07:04:30;;;;;;;9.27;2.75;;;18.70;99.90;;;;;;4237099;27;20054;-80
2023/08/24 07:06:34;;;;;;;6.88;2.15;;;18.80;99.90;;;;;;4236723;27;20130;-80
2023/08/24 07:08:36;;;;;;;8.15;2.78;;;19.00;99.90;;;;;;4226617;28;20059;-80
2023/08/24 07:10:36;;;;;;;7.50;2.70;;;19.10;99.90;;;;;;4218056;28;20092;-80
2023/08/24 07:12:40;;;;;;;6.82;2.92;;;19.20;99.90;;;;;;4238181;27;20424;-80
2023/08/24 07:14:41;;;;;;;9.23;3.17;;;19.50;99.90;;;;;;4244549;27;20143;-80
2023/08/24 07:16:42;;;;;;;5.78;2.42;;;19.40;99.90;;;;;;4236206;27;20126;-80
2023/08/24 07:18:43;;;;;;;6.43;3.08;;;19.40;99.90;;;;;;4218120;28;20052;-80
2023/08/24 07:20:44;;;;;;;6.68;2.08;;;19.50;99.90;;;;;;4237405;27;20403;-80
2023/08/24 07:22:44;;;;;;;6.05;2.53;;;19.60;99.90;;;;;;4240316;27;20048;-80
2023/08/24 07:24:45;;;;;;;9.20;2.58;;;19.70;99.90;;;;;;4236732;27;20036;-80
2023/08/24 07:26:47;;;;;;;10.38;2.78;;;19.70;99.90;;;;;;4244017;27;20042;-80
2023/08/24 07:28:47;;;;;;;14.40;3.42;;;19.80;99.90;;;;;;4227528;28;20077;-80
2023/08/24 07:30:48;;;;;;;6.45;2.17;;;19.90;99.90;;;;;;4236216;27;20040;-80
2023/08/24 07:32:49;;;;;;;9.52;2.70;;;20.10;99.90;;;;;;4237313;27;20452;-80
2023/08/24 07:34:50;;;;;;;5.10;3.20;;;20.20;99.90;;;;;;4243934;27;20407;-80
2023/08/24 07:36:51;;;;;;;5.45;2.53;;;20.30;99.90;;;;;;4218312;28;20099;-80
2023/08/24 07:38:52;;;;;;;4.55;2.88;;;20.30;99.90;;;;;;4232760;27;20047;-80
2023/08/24 07:40:53;;;;;;;5.47;2.60;;;20.30;99.90;;;;;;4236375;27;20491;-80
2023/08/24 07:42:56;;;;;;;6.55;2.22;;;20.30;99.90;;;;;;4236113;27;20141;-80
2023/08/24 07:44:56;;;;;;;6.07;2.60;;;20.40;99.90;;;;;;4236471;27;20499;-80
2023/08/24 07:46:57;;;;;;;5.63;2.30;;;20.40;99.90;;;;;;4236201;27;20350;-80
2023/08/24 07:48:58;;;;;;;7.80;3.13;;;20.60;99.90;;;;;;4237104;27;20054;-81
2023/08/24 07:50:59;;;;;;;6.05;2.58;;;20.80;99.90;;;;;;4226884;28;20059;-80
2023/08/24 07:52:59;;;;;;;7.47;3.33;;;21.00;99.90;;;;;;4245479;27;20067;-80
2023/08/24 07:55:03;;;;;;;5.03;3.03;;;21.10;99.90;;;;;;4236128;27;20043;-80
2023/08/24 07:57:05;;;;;;;7.18;3.00;;;21.30;99.90;;;;;;4236099;27;20053;-80
2023/08/24 07:59:06;;;;;;;7.38;3.20;;;21.50;99.90;;;;;;4217548;28;20086;-80
2023/08/24 08:01:07;;;;;;;6.88;3.45;;;21.50;99.90;;;;;;4235998;27;20044;-80
2023/08/24 08:03:08;;;;;;;7.93;3.05;;;21.70;99.90;;;;;;4236050;27;20096;-81
2023/08/24 08:05:10;;;;;;;8.65;3.60;;;21.90;99.90;;;;;;4235741;27;20050;-80
2023/08/24 08:07:11;;;;;;;9.27;3.78;;;22.10;99.90;;;;;;4236113;27;20118;-80
2023/08/24 08:09:12;;;;;;;7.18;2.85;;;22.10;99.90;;;;;;4217557;28;20458;-80
2023/08/24 08:11:12;;;;;;;7.05;3.58;;;22.00;99.90;;;;;;4219614;28;20056;-80
2023/08/24 08:13:13;;;;;;;8.20;3.60;;;21.90;99.90;;;;;;4227055;28;20384;-81
2023/08/24 08:15:14;;;;;;;7.03;4.40;;;21.90;99.90;;;;;;4229169;28;20048;-80
2023/08/24 08:17:15;;;;;;;7.55;4.40;;;21.90;99.90;;;;;;4214418;28;20388;-80
2023/08/24 08:19:17;;;;;;;10.25;3.92;;;21.90;99.90;;;;;;4218189;28;20475;-80
2023/08/24 08:21:19;;;;;;;8.57;4.07;;;22.00;99.90;;;;;;4217955;28;20050;-80
2023/08/24 08:23:19;;;;;;;11.77;3.88;;;22.20;99.90;;;;;;4226951;27;20040;-80
2023/08/24 08:25:22;;;;;;;7.90;3.15;;;22.50;99.90;;;;;;4218375;28;20051;-80
2023/08/24 08:27:23;;;;;;;8.48;3.63;;;22.70;99.90;;;;;;4218902;28;20044;-81
2023/08/24 08:29:24;;;;;;;5.75;3.80;;;22.90;99.90;;;;;;4218377;28;20139;-80
2023/08/24 08:31:25;;;;;;;6.30;3.03;;;23.00;99.90;;;;;;4217098;28;20052;-80
2023/08/24 08:33:25;;;;;;;8.38;3.08;;;23.10;99.90;;;;;;4218709;28;20048;-81
2023/08/24 08:35:26;;;;;;;6.22;3.42;;;23.40;99.90;;;;;;4218310;28;20047;-80
2023/08/24 08:37:27;;;;;;;7.35;2.80;;;23.40;99.90;;;;;;4226280;28;20091;-81
2023/08/24 08:39:28;;;;;;;5.43;2.78;;;23.50;99.90;;;;;;4230076;28;20048;-80
2023/08/24 08:41:38;;;;;;;7.32;3.35;;;23.70;99.90;;;;;;4216440;28;20040;-80
2023/08/24 08:43:39;;;;;;;6.57;3.03;;;23.90;99.90;;;;;;4217752;28;20051;-80
2023/08/24 08:45:40;;;;;;;9.77;3.22;;;24.00;99.90;;;;;;4217592;28;20055;-81
2023/08/24 08:47:41;;;;;;;6.30;3.00;;;24.10;99.90;;;;;;4218301;28;20032;-80
2023/08/24 08:49:47;;;;;;;4.43;2.60;;;24.20;99.90;;;;;;4217677;28;20104;-80
2023/08/24 08:51:49;;;;;;;9.35;2.97;;;24.10;99.90;;;;;;4224470;28;20055;-81
2023/08/24 08:53:49;;;;;;;10.65;2.78;;;24.30;99.90;;;;;;4225923;28;20039;-81
2023/08/24 08:55:55;;;;;;;5.03;3.10;;;24.50;99.90;;;;;;4216574;28;20132;-81
2023/08/24 08:57:58;;;;;;;7.82;3.13;;;24.80;99.90;;;;;;4217694;28;20044;-81
2023/08/24 08:59:59;;;;;;;10.05;3.22;;;25.00;99.90;;;;;;4217969;28;20046;-81
2023/08/24 09:02:03;;;;;;;9.13;3.08;;;24.80;99.90;;;;;;4218252;28;20082;-81
2023/08/24 09:04:06;;;;;;;10.48;3.17;;;24.80;99.90;;;;;;4216854;28;20054;-79
2023/08/24 09:06:07;;;;;;;5.00;2.28;;;24.80;99.90;;;;;;4218119;28;20050;-80
2023/08/24 09:08:08;;;;;;;7.65;2.50;;;24.80;99.90;;;;;;4217932;28;20079;-80
2023/08/24 09:10:09;;;;;;;11.02;2.67;;;24.70;99.90;;;;;;4229049;27;20125;-80
2023/08/24 09:12:10;;;;;;;11.55;3.20;;;24.80;99.90;;;;;;4243219;27;20050;-79
2023/08/24 09:14:11;;;;;;;6.47;3.10;;;24.60;99.90;;;;;;4234644;27;20035;-79
2023/08/24 09:16:16;;;;;;;6.45;2.80;;;24.70;99.90;;;;;;4234781;27;20035;-80
2023/08/24 09:18:17;;;;;;;8.57;3.60;;;24.80;99.90;;;;;;4234887;27;20047;-80
2023/08/24 09:20:17;;;;;;;7.72;3.03;;;25.00;99.90;;;;;;4234386;27;20051;-80
2023/08/24 09:22:18;;;;;;;6.03;2.90;;;24.90;99.90;;;;;;4237494;27;20393;-80
2023/08/24 09:24:32;;;;;;;5.68;2.78;;;24.80;99.90;;;;;;4234954;27;20050;-80
2023/08/24 09:26:42;;;;;;;10.60;3.00;;;24.60;99.90;;;;;;4244964;27;20873;-80
2023/08/24 09:28:44;;;;;;;9.95;3.63;;;24.40;99.90;;;;;;4234810;27;20103;-80
2023/08/24 09:30:45;;;;;;;9.23;3.70;;;24.50;99.90;;;;;;4234770;27;20043;-80
2023/08/24 09:32:46;;;;;;;7.95;3.15;;;24.50;99.90;;;;;;4234745;27;20050;-80
2023/08/24 09:34:47;;;;;;;6.60;2.83;;;24.50;99.90;;;;;;4216602;28;20047;-79
2023/08/24 09:36:48;;;;;;;6.88;2.47;;;24.60;99.90;;;;;;4234728;27;20053;-79
2023/08/24 09:38:49;;;;;;;6.97;2.60;;;24.50;99.90;;;;;;4234275;28;20143;-79
2023/08/24 09:40:55;;;;;;;5.30;3.53;;;24.50;99.90;;;;;;4234792;28;20035;-79
2023/08/24 09:42:56;;;;;;;8.15;2.75;;;24.30;99.90;;;;;;4234732;27;20027;-80
2023/08/24 09:45:04;;;;;;;5.80;2.70;;;24.20;99.90;;;;;;4233912;28;20087;-79
2023/08/24 09:47:11;;;;;;;8.20;2.58;;;24.30;99.90;;;;;;4216237;28;20527;-79
2023/08/24 09:49:12;;;;;;;6.60;2.30;;;24.20;99.90;;;;;;4234056;28;20066;-79
2023/08/24 09:51:14;;;;;;;6.57;3.55;;;24.20;99.90;;;;;;4218911;28;20097;-80
2023/08/24 09:53:22;;;;;;;9.05;2.95;;;24.10;99.90;;;;;;4238764;27;20069;-79
2023/08/24 09:55:25;;;;;;;5.15;3.15;;;24.00;99.90;;;;;;4216411;28;20028;-79
2023/08/24 09:57:26;;;;;;;6.68;2.55;;;23.90;99.90;;;;;;4234637;28;20510;-79
2023/08/24 09:59:30;;;;;;;11.23;2.75;;;23.90;99.90;;;;;;4233847;28;20107;-79
2023/08/24 10:01:31;;;;;;;5.95;3.35;;;24.00;99.90;;;;;;4216710;28;20044;-79
2023/08/24 10:03:34;;;;;;;6.32;3.00;;;23.00;99.90;;;;;;4234514;28;20098;-80
2023/08/24 10:05:35;;;;;;;9.23;3.00;;;24.00;99.90;;;;;;4234670;28;20071;-80
2023/08/24 10:07:38;;;;;;;6.00;2.95;;;23.80;99.90;;;;;;4234661;28;20056;-80
2023/08/24 10:09:46;;;;;;;9.27;3.20;;;23.80;99.90;;;;;;4234018;28;20047;-80
2023/08/24 10:11:54;;;;;;;7.38;2.70;;;23.80;99.90;;;;;;4216557;28;20523;-79
2023/08/24 10:13:57;;;;;;;5.47;2.65;;;23.80;99.90;;;;;;4234870;28;20044;-79
2023/08/24 10:15:59;;;;;;;8.15;3.30;;;23.80;99.90;;;;;;4217204;28;20048;-79
2023/08/24 10:18:01;;;;;;;6.20;3.10;;;23.80;99.90;;;;;;4234217;28;20036;-80
2023/08/24 10:20:06;;;;;;;7.82;3.08;;;23.80;99.90;;;;;;4234664;28;20044;-80
2023/08/24 10:22:08;;;;;;;6.45;3.10;;;23.80;99.90;;;;;;4238767;28;20045;-80
2023/08/24 10:24:09;;;;;;;8.32;2.92;;;23.80;99.90;;;;;;4234348;28;20525;-79
2023/08/24 10:26:12;;;;;;;9.88;3.47;;;23.80;99.90;;;;;;4219421;28;20131;-79
2023/08/24 10:28:16;;;;;;;7.22;2.38;;;23.80;99.90;;;;;;4251364;27;20130;-83
2023/08/24 10:30:19;;;;;;;7.22;2.85;;;23.70;99.90;;;;;;4224162;28;20043;-78
2023/08/24 10:32:22;;;;;;;7.45;2.97;;;23.80;99.90;;;;;;4237561;27;20040;-79